Terminal Aerodrome Forecast
Issued by NWS

Home | Current Version | Previous Version | Graphics & Text | Print | Product List | Glossary On
Versions: 1 2 3 4 5 6 7 8 9 10 11 12 13
000
FTUS43 KMPX 240900 AAA
TAFRWF
TAF AMD
KRWF 240956Z 2410/2506 33014KT 6SM BR OVC005
     FM241700 32007KT P6SM OVC015
     FM250100 22007KT P6SM SCT020 BKN100=

USA.gov is the U.S. government's official web portal to all federal, state and local government web resources and services.